createdAt,value
2023-04-02T00:12:43.093Z,3.9
2023-04-02T00:27:52.528Z,3.1
2023-04-02T00:43:02.282Z,3.3
2023-04-02T00:58:11.637Z,3
2023-04-02T01:13:21.033Z,3.3
2023-04-02T01:28:30.437Z,3.6
2023-04-02T01:43:42.622Z,2.7
2023-04-02T01:58:52.761Z,2.3
2023-04-02T02:14:02.148Z,2.7
2023-04-02T02:29:11.896Z,2.5
2023-04-02T02:44:21.797Z,2.3
2023-04-02T02:59:31.427Z,2.5
2023-04-02T03:14:42.581Z,2.3
2023-04-02T03:29:50.782Z,2.4
2023-04-02T03:45:00.166Z,1.9
2023-04-02T04:00:09.931Z,2.2
2023-04-02T04:15:19.217Z,2
2023-04-02T04:30:28.775Z,2.1
2023-04-02T04:45:37.879Z,1.9
2023-04-02T05:00:50.022Z,2.3
2023-04-02T05:16:01.659Z,2.1
2023-04-02T05:31:11.600Z,2.1
2023-04-02T05:46:21.932Z,1.7
2023-04-02T06:01:31.853Z,2
2023-04-02T06:16:41.823Z,1.7
2023-04-02T06:31:51.182Z,1.9
2023-04-02T06:47:00.655Z,2.2
2023-04-02T07:02:10.436Z,2.2
2023-04-02T07:17:20.014Z,2.5
2023-04-02T07:32:30.344Z,2.3
2023-04-02T07:47:39.765Z,2
2023-04-02T08:02:49.595Z,1.7
2023-04-02T08:17:59.216Z,2
2023-04-02T08:33:09.398Z,1.8
2023-04-02T08:48:19.683Z,2
2023-04-02T09:03:29.510Z,2
2023-04-02T09:18:39.160Z,2.2
2023-04-02T09:33:48.744Z,2.7
2023-04-02T09:48:59.009Z,1.8
2023-04-02T10:04:08.838Z,2
2023-04-02T10:19:18.696Z,1.9
2023-04-02T10:34:28.408Z,2.2
2023-04-02T10:49:38.661Z,2
2023-04-02T11:04:49.089Z,2.4
2023-04-02T11:19:59.047Z,2
2023-04-02T11:35:08.874Z,1.8
2023-04-02T11:50:18.673Z,1.6
2023-04-02T12:05:28.972Z,1.8
2023-04-02T12:20:41.257Z,2
2023-04-02T12:35:52.159Z,1.4
2023-04-02T12:51:03.313Z,1.8
2023-04-02T13:06:13.056Z,1.3
2023-04-02T13:21:22.818Z,1.9
2023-04-02T13:36:32.468Z,1.4
2023-04-02T13:51:43.426Z,1.3
2023-04-02T14:06:54.348Z,1.3
2023-04-02T14:22:03.645Z,1.5
2023-04-02T14:37:14.385Z,1.3
2023-04-02T14:52:24.658Z,1.6
2023-04-02T15:07:33.453Z,1.4
2023-04-02T15:22:43.880Z,1.3
2023-04-02T15:37:55.956Z,1.3
2023-04-02T15:53:05.483Z,1.7
2023-04-02T16:08:13.571Z,2
2023-04-02T16:23:23.916Z,2.1
2023-04-02T16:38:32.009Z,1.3
2023-04-02T16:54:01.334Z,1.5
2023-04-02T17:09:12.484Z,1.4
2023-04-02T17:24:21.782Z,1.7
2023-04-02T17:39:31.099Z,1.8
2023-04-02T17:54:43.384Z,1.7
2023-04-02T18:09:53.935Z,2
2023-04-02T18:25:04.300Z,1.9
2023-04-02T18:40:14.838Z,1.8
2023-04-02T18:55:25.061Z,1.8
2023-04-02T19:10:35.700Z,1.8
2023-04-02T19:25:44.490Z,2.5
2023-04-02T19:40:54.012Z,2.7
2023-04-02T19:56:03.977Z,2.4
2023-04-02T20:11:13.905Z,2.3
2023-04-02T20:26:23.132Z,1.9
2023-04-02T20:41:32.384Z,1.9
2023-04-02T20:56:43.731Z,2
2023-04-02T21:11:52.286Z,2.3
2023-04-02T21:27:01.666Z,2.1
2023-04-02T21:42:10.372Z,1.5
2023-04-02T21:57:19.877Z,2.1
2023-04-02T22:12:28.754Z,1.8
2023-04-02T22:27:37.623Z,2.1
2023-04-02T22:42:49.013Z,1.8
2023-04-02T22:57:58.530Z,2.4
2023-04-02T23:13:07.751Z,1.9
2023-04-02T23:28:16.962Z,1.7
2023-04-02T23:43:26.460Z,1.7
2023-04-02T23:58:35.465Z,1.9
